Time After Time — 6YSL5 — position and weather

sailwx.info

Track history (hours):
 
Tides and Currents Weather Stations Pressure Air Temp Water Temp Dewpoint Dewpoint Depression Visibility Wind Speed Wind Dir Waves Ship Positions

Time After Time

Last reported at 2017-Nov-26 20:09 UTC. Time now 2017-Dec-14 04:06 UTC.
Position N 26°49' W 080°03'.
Warning: this ship's position is 17 days out of date.

Length 29 m; draft 2.2 m.

MMSI: 339437000.

Date/timePositionNaut miles runAvg speedWind from/ knotsBaromVisibWave heightAir tempDewpointWater temp
2017-Nov-26 20:09N 26°49' W 080°03'1 7.2
2017-Nov-26 20:00N 26°50' W 080°03'1 0.3
2017-Nov-26 16:31N 26°49' W 080°03'1 4.3
2017-Nov-26 16:15N 26°50' W 080°03'0 0.0
2017-Nov-26 15:59N 26°50' W 080°03'0 0.0
2017-Nov-26 15:30N 26°50' W 080°03'0 0.0
2017-Nov-26 15:00N 26°50' W 080°03'0 0.0
2017-Nov-26 14:29N 26°50' W 080°03'7 0.2
2017-Nov-24 19:46N 26°43' W 080°03'1 2.7
2017-Nov-24 19:31N 26°42' W 080°03'  
2017-Nov-20 00:23N 26°42' W 080°03'0 0.5
2017-Nov-20 00:00N 26°42' W 080°03'1 1.6
2017-Nov-19 23:30N 26°43' W 080°03'3 5.5
2017-Nov-19 23:00N 26°46' W 080°03'611.7
2017-Nov-19 22:31N 26°42' W 079°58'2416.1
2017-Nov-19 21:02N 26°18' W 079°59'115.5
2017-Nov-19 21:00N 26°17' W 079°59'714.9
2017-Nov-19 20:30N 26°10' W 080°01'611.0
2017-Nov-19 20:00N 26°06' W 080°05'2 3.7
2017-Nov-19 19:30N 26°07' W 080°06'0 0.0
2017-Nov-18 14:32N 26°07' W 080°06'0 1.6
2017-Nov-18 14:30N 26°07' W 080°06'2 3.8
2017-Nov-18 14:01N 26°07' W 080°09'1 2.2
2017-Nov-18 13:30N 26°06' W 080°10'2 2.6
2017-Nov-18 12:46N 26°05' W 080°11'  
Track history (hours):
 
Tides and Currents Weather Stations Pressure Air Temp Water Temp Dewpoint Dewpoint Depression Visibility Wind Speed Wind Dir Waves Ship Positions

Time After Time

Last reported at 2017-Nov-26 20:09 UTC. Time now 2017-Dec-14 04:06 UTC.
Position N 26°49' W 080°03'.
Warning: this ship's position is 17 days out of date.

Length 29 m; draft 2.2 m.

MMSI: 339437000.

Date/timePositionNaut miles runAvg speedWind from/ knotsBaromVisibWave heightAir tempDewpointWater temp
2017-Nov-26 20:09N 26°49' W 080°03'1 7.2
2017-Nov-26 20:00N 26°50' W 080°03'1 0.3
2017-Nov-26 16:31N 26°49' W 080°03'1 4.3
2017-Nov-26 16:15N 26°50' W 080°03'0 0.0
2017-Nov-26 15:59N 26°50' W 080°03'0 0.0
2017-Nov-26 15:30N 26°50' W 080°03'0 0.0
2017-Nov-26 15:00N 26°50' W 080°03'0 0.0
2017-Nov-26 14:29N 26°50' W 080°03'7 0.2
2017-Nov-24 19:46N 26°43' W 080°03'1 2.7
2017-Nov-24 19:31N 26°42' W 080°03'  
2017-Nov-20 00:23N 26°42' W 080°03'0 0.5
2017-Nov-20 00:00N 26°42' W 080°03'1 1.6
2017-Nov-19 23:30N 26°43' W 080°03'3 5.5
2017-Nov-19 23:00N 26°46' W 080°03'611.7
2017-Nov-19 22:31N 26°42' W 079°58'2416.1
2017-Nov-19 21:02N 26°18' W 079°59'115.5
2017-Nov-19 21:00N 26°17' W 079°59'714.9
2017-Nov-19 20:30N 26°10' W 080°01'611.0
2017-Nov-19 20:00N 26°06' W 080°05'2 3.7
2017-Nov-19 19:30N 26°07' W 080°06'0 0.0
2017-Nov-18 14:32N 26°07' W 080°06'0 1.6
2017-Nov-18 14:30N 26°07' W 080°06'2 3.8
2017-Nov-18 14:01N 26°07' W 080°09'1 2.2
2017-Nov-18 13:30N 26°06' W 080°10'2 2.6
2017-Nov-18 12:46N 26°05' W 080°11'  

Dump ship's entire track history